WMT2NS LIRF-EPWA
Flight info
| Callsign | WMT2NS |
|---|---|
| Flight time | 2h 3m |
| Altitude | 37000 |
| Route | OKUNO L5 ATRUP/N0429F380 DCT XAMIT/N0431F370 DCT KOPRY DCT ALAMU DCT ORTEB/N0428F380 DCT KONZI DCT LOGDA |
| Aircraft | A21N/M-SDE1E2E3FGIJ1J4RWXY/LB1 |
Departure
| Time | 2026-05-04 10:44 |
|---|---|
| Airport | Rome–Fiumicino Leonardo da Vinci International Airport (LIRF) |
Arrival
| Time | 2026-05-04 12:48 |
|---|---|
| Airport | Warsaw Chopin Airport (EPWA) |
| Time | Latitude | Longitude | Altitude | Speed | Heading |
|---|---|---|---|---|---|
| 2026-05-04 10:25 | 41.79862 | 12.25577 | 19 ft | 0 kts | 205° |
| 2026-05-04 10:28 | 41.79871 | 12.25582 | 19 ft | 4 kts | 205° |
| 2026-05-04 10:28 | 41.79891 | 12.25595 | 21 ft | 4 kts | 208° |
| 2026-05-04 10:28 | 41.79911 | 12.25616 | 22 ft | 4 kts | 239° |
| 2026-05-04 10:28 | 41.79915 | 12.25644 | 20 ft | 3 kts | 295° |
| 2026-05-04 10:29 | 41.79919 | 12.25633 | 21 ft | 4 kts | 295° |
| 2026-05-04 10:29 | 41.79929 | 12.25604 | 21 ft | 1 kts | 295° |
| 2026-05-04 10:29 | 41.79929 | 12.25603 | 21 ft | 3 kts | 295° |
| 2026-05-04 10:36 | 41.79933 | 12.25593 | 20 ft | 4 kts | 295° |
| 2026-05-04 10:36 | 41.79958 | 12.25522 | 19 ft | 13 kts | 295° |
| 2026-05-04 10:36 | 41.80007 | 12.25384 | 21 ft | 20 kts | 295° |
| 2026-05-04 10:37 | 41.80034 | 12.25332 | 19 ft | 3 kts | 337° |
| 2026-05-04 10:37 | 41.80066 | 12.25348 | 21 ft | 7 kts | 25° |
| 2026-05-04 10:37 | 41.80125 | 12.25375 | 19 ft | 11 kts | 14° |
| 2026-05-04 10:37 | 41.80208 | 12.25411 | 20 ft | 15 kts | 20° |
| 2026-05-04 10:39 | 41.80527 | 12.26248 | 22 ft | 0 kts | 68° |
| 2026-05-04 10:39 | 41.80533 | 12.26269 | 21 ft | 5 kts | 68° |
| 2026-05-04 10:39 | 41.80550 | 12.26327 | 22 ft | 9 kts | 68° |
| 2026-05-04 10:40 | 41.80577 | 12.26417 | 21 ft | 12 kts | 68° |
| 2026-05-04 10:40 | 41.80613 | 12.26536 | 21 ft | 15 kts | 68° |
| 2026-05-04 10:40 | 41.80642 | 12.26629 | 21 ft | 17 kts | 67° |
| 2026-05-04 10:40 | 41.80700 | 12.26849 | 19 ft | 20 kts | 71° |
| 2026-05-04 10:41 | 41.80759 | 12.27030 | 19 ft | 23 kts | 23° |
| 2026-05-04 10:41 | 41.80871 | 12.27009 | 19 ft | 11 kts | 341° |
| 2026-05-04 10:41 | 41.80949 | 12.26952 | 18 ft | 14 kts | 300° |
| 2026-05-04 10:41 | 41.80940 | 12.26858 | 19 ft | 17 kts | 250° |
| 2026-05-04 10:42 | 41.80933 | 12.26833 | 20 ft | 2 kts | 248° |
| 2026-05-04 10:42 | 41.80924 | 12.26804 | 19 ft | 0 kts | 248° |
| 2026-05-04 10:44 | 41.79580 | 12.21924 | 1833 ft | 191 kts | 249° |
| 2026-05-04 10:45 | 41.79271 | 12.20151 | 2876 ft | 198 kts | 266° |
| 2026-05-04 10:45 | 41.79230 | 12.18279 | 4064 ft | 204 kts | 268° |
| 2026-05-04 10:45 | 41.79172 | 12.16349 | 5297 ft | 210 kts | 263° |
| 2026-05-04 10:45 | 41.78685 | 12.14495 | 6451 ft | 216 kts | 232° |
| 2026-05-04 10:46 | 41.77651 | 12.13066 | 7565 ft | 219 kts | 220° |
| 2026-05-04 10:46 | 41.76492 | 12.11693 | 8696 ft | 225 kts | 220° |
| 2026-05-04 10:46 | 41.75313 | 12.10275 | 9859 ft | 230 kts | 221° |
| 2026-05-04 10:46 | 41.74115 | 12.08818 | 10946 ft | 233 kts | 221° |
| 2026-05-04 10:47 | 41.72909 | 12.07341 | 12032 ft | 237 kts | 221° |
| 2026-05-04 10:47 | 41.71681 | 12.05834 | 13143 ft | 241 kts | 220° |
| 2026-05-04 10:47 | 41.70288 | 12.04594 | 14187 ft | 243 kts | 200° |
| 2026-05-04 10:47 | 41.68546 | 12.04153 | 14707 ft | 271 kts | 181° |
| 2026-05-04 10:49 | 41.59244 | 12.19044 | 19685 ft | 374 kts | 103° |
| 2026-05-04 10:49 | 41.58627 | 12.22441 | 20528 ft | 378 kts | 103° |
| 2026-05-04 10:50 | 41.58211 | 12.25894 | 21447 ft | 378 kts | 91° |
| 2026-05-04 10:51 | 41.69396 | 12.44960 | 26358 ft | 400 kts | 40° |
| 2026-05-04 10:52 | 41.71457 | 12.47520 | 27003 ft | 404 kts | 40° |
| 2026-05-04 10:52 | 41.73527 | 12.50103 | 27614 ft | 408 kts | 39° |
| 2026-05-04 10:52 | 41.75611 | 12.52708 | 28207 ft | 412 kts | 39° |
| 2026-05-04 10:54 | 41.91813 | 12.69455 | 31898 ft | 427 kts | 30° |
| 2026-05-04 10:54 | 41.94246 | 12.71751 | 32514 ft | 424 kts | 30° |
| 2026-05-04 10:56 | 42.08273 | 12.91391 | 36018 ft | 430 kts | 57° |
| 2026-05-04 10:56 | 42.09707 | 12.94943 | 36422 ft | 430 kts | 56° |
| 2026-05-04 10:56 | 42.11133 | 12.98491 | 36884 ft | 429 kts | 57° |
| 2026-05-04 10:57 | 42.12533 | 13.02048 | 37179 ft | 428 kts | 57° |
| 2026-05-04 10:57 | 42.15288 | 13.09019 | 37219 ft | 421 kts | 57° |
| 2026-05-04 10:58 | 42.18021 | 13.16008 | 37194 ft | 420 kts | 57° |
| 2026-05-04 10:58 | 42.20735 | 13.22967 | 37193 ft | 420 kts | 57° |
| 2026-05-04 10:59 | 42.23428 | 13.29959 | 37192 ft | 419 kts | 57° |
| 2026-05-04 10:59 | 42.26120 | 13.36910 | 37177 ft | 418 kts | 57° |
| 2026-05-04 11:00 | 42.28828 | 13.43863 | 37171 ft | 417 kts | 57° |
| 2026-05-04 11:01 | 42.40055 | 13.65959 | 37161 ft | 402 kts | 36° |
| 2026-05-04 11:02 | 42.42131 | 13.68453 | 37167 ft | 402 kts | 37° |
| 2026-05-04 11:05 | 42.73270 | 14.06845 | 37147 ft | 402 kts | 37° |
| 2026-05-04 11:06 | 42.77376 | 14.11966 | 37152 ft | 402 kts | 38° |
| 2026-05-04 11:06 | 42.81516 | 14.17122 | 37146 ft | 402 kts | 38° |
| 2026-05-04 11:10 | 43.10185 | 14.53132 | 37147 ft | 400 kts | 38° |
| 2026-05-04 11:12 | 43.26512 | 14.73871 | 37155 ft | 400 kts | 38° |
| 2026-05-04 11:12 | 43.30628 | 14.79050 | 37153 ft | 399 kts | 34° |
| 2026-05-04 11:13 | 43.35356 | 14.82845 | 37153 ft | 392 kts | 22° |
| 2026-05-04 11:13 | 43.40234 | 14.86132 | 37157 ft | 392 kts | 22° |
| 2026-05-04 11:14 | 43.45131 | 14.89532 | 37156 ft | 393 kts | 23° |
| 2026-05-04 11:16 | 43.64592 | 15.03244 | 37162 ft | 393 kts | 23° |
| 2026-05-04 11:16 | 43.69472 | 15.06700 | 37156 ft | 394 kts | 23° |
| 2026-05-04 11:17 | 43.74331 | 15.10147 | 37163 ft | 394 kts | 23° |
| 2026-05-04 11:19 | 43.93823 | 15.24035 | 37168 ft | 394 kts | 24° |
| 2026-05-04 11:19 | 43.98717 | 15.27536 | 37107 ft | 400 kts | 24° |
| 2026-05-04 11:20 | 44.03770 | 15.31154 | 37165 ft | 411 kts | 24° |
| 2026-05-04 11:20 | 44.08858 | 15.34811 | 37175 ft | 411 kts | 24° |
| 2026-05-04 11:22 | 44.29156 | 15.49454 | 37158 ft | 410 kts | 24° |
| 2026-05-04 11:23 | 44.34221 | 15.53136 | 37154 ft | 409 kts | 24° |
| 2026-05-04 11:25 | 44.51871 | 15.65983 | 37128 ft | 409 kts | 24° |
| 2026-05-04 11:25 | 44.56910 | 15.69671 | 37126 ft | 408 kts | 24° |
| 2026-05-04 11:27 | 44.79503 | 15.86294 | 37102 ft | 407 kts | 24° |
| 2026-05-04 11:28 | 44.84529 | 15.90007 | 37102 ft | 407 kts | 24° |
| 2026-05-04 11:28 | 44.88737 | 15.93132 | 37094 ft | 407 kts | 25° |
| 2026-05-04 11:29 | 44.93725 | 15.96845 | 37090 ft | 407 kts | 24° |
| 2026-05-04 11:29 | 44.98742 | 16.00574 | 37097 ft | 407 kts | 25° |
| 2026-05-04 11:33 | 45.33689 | 16.26782 | 37097 ft | 406 kts | 25° |
| 2026-05-04 11:33 | 45.38649 | 16.30537 | 37100 ft | 406 kts | 25° |
| 2026-05-04 11:34 | 45.43643 | 16.34306 | 37100 ft | 406 kts | 25° |
| 2026-05-04 11:34 | 45.48602 | 16.38077 | 37100 ft | 406 kts | 25° |
| 2026-05-04 11:35 | 45.53593 | 16.41866 | 37105 ft | 406 kts | 25° |
| 2026-05-04 11:35 | 45.58579 | 16.45664 | 37101 ft | 406 kts | 25° |
| 2026-05-04 11:36 | 45.63541 | 16.49459 | 37102 ft | 406 kts | 25° |
| 2026-05-04 11:36 | 45.68543 | 16.53285 | 37102 ft | 406 kts | 25° |
| 2026-05-04 11:37 | 45.73507 | 16.57094 | 37100 ft | 406 kts | 25° |
| 2026-05-04 11:37 | 45.78462 | 16.60901 | 37094 ft | 406 kts | 26° |
| 2026-05-04 11:38 | 45.83448 | 16.64738 | 37099 ft | 406 kts | 26° |
| 2026-05-04 11:38 | 45.88438 | 16.68584 | 37106 ft | 406 kts | 26° |
| 2026-05-04 11:39 | 45.93387 | 16.72412 | 37108 ft | 406 kts | 26° |
| 2026-05-04 11:41 | 46.10814 | 16.85946 | 37100 ft | 407 kts | 26° |
| 2026-05-04 11:41 | 46.15808 | 16.89838 | 37101 ft | 407 kts | 26° |
| 2026-05-04 11:42 | 46.20776 | 16.93720 | 37099 ft | 407 kts | 26° |
| 2026-05-04 11:42 | 46.25717 | 16.97754 | 37100 ft | 408 kts | 29° |
| 2026-05-04 11:43 | 46.30544 | 17.02033 | 37101 ft | 408 kts | 29° |
| 2026-05-04 11:43 | 46.35393 | 17.06338 | 37094 ft | 408 kts | 29° |
| 2026-05-04 11:44 | 46.40204 | 17.10613 | 37096 ft | 408 kts | 29° |
| 2026-05-04 11:44 | 46.45060 | 17.14943 | 37090 ft | 408 kts | 29° |
| 2026-05-04 11:45 | 46.49875 | 17.19239 | 37087 ft | 408 kts | 29° |
| 2026-05-04 11:45 | 46.54722 | 17.23576 | 37092 ft | 408 kts | 29° |
| 2026-05-04 11:46 | 46.59533 | 17.27889 | 37084 ft | 407 kts | 29° |
| 2026-05-04 11:46 | 46.64328 | 17.32201 | 37085 ft | 404 kts | 30° |
| 2026-05-04 11:47 | 46.69100 | 17.36492 | 37084 ft | 404 kts | 30° |
| 2026-05-04 11:47 | 46.73905 | 17.40828 | 37085 ft | 405 kts | 30° |
| 2026-05-04 11:48 | 46.78671 | 17.45135 | 37093 ft | 405 kts | 30° |
| 2026-05-04 11:48 | 46.83446 | 17.49462 | 37089 ft | 405 kts | 30° |
| 2026-05-04 11:49 | 46.88241 | 17.53815 | 37099 ft | 406 kts | 30° |
| 2026-05-04 11:49 | 46.93044 | 17.58189 | 37098 ft | 406 kts | 30° |
| 2026-05-04 11:50 | 46.97845 | 17.62568 | 37092 ft | 406 kts | 30° |
| 2026-05-04 11:50 | 47.02618 | 17.66930 | 37092 ft | 406 kts | 30° |
| 2026-05-04 11:51 | 47.07418 | 17.71318 | 37096 ft | 406 kts | 30° |
| 2026-05-04 11:51 | 47.12182 | 17.75695 | 37096 ft | 406 kts | 30° |
| 2026-05-04 11:52 | 47.16991 | 17.80116 | 37098 ft | 406 kts | 30° |
| 2026-05-04 11:52 | 47.21753 | 17.84504 | 37094 ft | 406 kts | 30° |
| 2026-05-04 11:53 | 47.26541 | 17.88928 | 37094 ft | 406 kts | 30° |
| 2026-05-04 11:53 | 47.31304 | 17.93334 | 37088 ft | 406 kts | 30° |
| 2026-05-04 11:55 | 47.50442 | 18.11145 | 37094 ft | 406 kts | 30° |
| 2026-05-04 11:56 | 47.55232 | 18.15629 | 37089 ft | 407 kts | 30° |
| 2026-05-04 11:56 | 47.59981 | 18.20097 | 37090 ft | 407 kts | 30° |
| 2026-05-04 11:57 | 47.64752 | 18.24581 | 37098 ft | 407 kts | 30° |
| 2026-05-04 11:57 | 47.69537 | 18.29087 | 37102 ft | 407 kts | 30° |
| 2026-05-04 11:58 | 47.74337 | 18.33594 | 37095 ft | 407 kts | 29° |
| 2026-05-04 11:58 | 47.79196 | 18.37943 | 37089 ft | 407 kts | 28° |
| 2026-05-04 11:59 | 47.84026 | 18.42267 | 37085 ft | 407 kts | 29° |
| 2026-05-04 11:59 | 47.88890 | 18.46642 | 37093 ft | 407 kts | 29° |
| 2026-05-04 12:00 | 47.93714 | 18.50997 | 37083 ft | 407 kts | 29° |
| 2026-05-04 12:00 | 47.98586 | 18.55407 | 37082 ft | 407 kts | 29° |
| 2026-05-04 12:01 | 48.03413 | 18.59781 | 37082 ft | 407 kts | 29° |
| 2026-05-04 12:02 | 48.20328 | 18.75192 | 37102 ft | 405 kts | 29° |
| 2026-05-04 12:03 | 48.25127 | 18.79583 | 37088 ft | 405 kts | 29° |
| 2026-05-04 12:03 | 48.29948 | 18.84008 | 37084 ft | 405 kts | 29° |
| 2026-05-04 12:04 | 48.34726 | 18.88407 | 37092 ft | 405 kts | 29° |
| 2026-05-04 12:04 | 48.39538 | 18.92847 | 37092 ft | 405 kts | 29° |
| 2026-05-04 12:05 | 48.44347 | 18.97283 | 37095 ft | 405 kts | 29° |
| 2026-05-04 12:05 | 48.49130 | 19.01714 | 37089 ft | 405 kts | 29° |
| 2026-05-04 12:06 | 48.53937 | 19.06176 | 37098 ft | 405 kts | 29° |
| 2026-05-04 12:06 | 48.58750 | 19.10666 | 37091 ft | 405 kts | 30° |
| 2026-05-04 12:07 | 48.63521 | 19.15117 | 37098 ft | 405 kts | 30° |
| 2026-05-04 12:07 | 48.68307 | 19.19591 | 37100 ft | 405 kts | 30° |
| 2026-05-04 12:08 | 48.73117 | 19.24100 | 37100 ft | 406 kts | 30° |
| 2026-05-04 12:08 | 48.77926 | 19.28610 | 37096 ft | 406 kts | 30° |
| 2026-05-04 12:09 | 48.82718 | 19.33112 | 37077 ft | 406 kts | 29° |
| 2026-05-04 12:09 | 48.87531 | 19.37639 | 37086 ft | 406 kts | 29° |
| 2026-05-04 12:10 | 48.92309 | 19.42152 | 37098 ft | 405 kts | 30° |
| 2026-05-04 12:10 | 48.97117 | 19.46705 | 37090 ft | 406 kts | 30° |
| 2026-05-04 12:11 | 49.01898 | 19.51244 | 37095 ft | 406 kts | 30° |
| 2026-05-04 12:11 | 49.06669 | 19.55784 | 37092 ft | 406 kts | 30° |
| 2026-05-04 12:12 | 49.11469 | 19.60370 | 37090 ft | 406 kts | 30° |
| 2026-05-04 12:12 | 49.16248 | 19.64934 | 37088 ft | 406 kts | 30° |
| 2026-05-04 12:14 | 49.35379 | 19.83321 | 37069 ft | 406 kts | 30° |
| 2026-05-04 12:15 | 49.40191 | 19.87976 | 37057 ft | 406 kts | 30° |
| 2026-05-04 12:15 | 49.44979 | 19.92615 | 37049 ft | 406 kts | 30° |
| 2026-05-04 12:16 | 49.49728 | 19.97229 | 37048 ft | 406 kts | 30° |
| 2026-05-04 12:16 | 49.54513 | 20.01891 | 37045 ft | 407 kts | 31° |
| 2026-05-04 12:17 | 49.59288 | 20.06553 | 37041 ft | 407 kts | 31° |
| 2026-05-04 12:17 | 49.63262 | 20.10434 | 37040 ft | 407 kts | 31° |
| 2026-05-04 12:18 | 49.68032 | 20.15109 | 37040 ft | 407 kts | 31° |
| 2026-05-04 12:18 | 49.72816 | 20.19818 | 37026 ft | 407 kts | 31° |
| 2026-05-04 12:19 | 49.77605 | 20.24526 | 37026 ft | 407 kts | 31° |
| 2026-05-04 12:19 | 49.82384 | 20.29234 | 37024 ft | 407 kts | 31° |
| 2026-05-04 12:20 | 49.87129 | 20.33936 | 37026 ft | 407 kts | 31° |
| 2026-05-04 12:20 | 49.91912 | 20.38690 | 37027 ft | 408 kts | 31° |
| 2026-05-04 12:21 | 49.96689 | 20.43443 | 37024 ft | 408 kts | 31° |
| 2026-05-04 12:21 | 50.01472 | 20.48209 | 37022 ft | 408 kts | 31° |
| 2026-05-04 12:22 | 50.06251 | 20.52983 | 37021 ft | 408 kts | 31° |
| 2026-05-04 12:22 | 50.11298 | 20.56879 | 37015 ft | 405 kts | 12° |
| 2026-05-04 12:23 | 50.16876 | 20.57742 | 37027 ft | 403 kts | 1° |
| 2026-05-04 12:23 | 50.22482 | 20.58225 | 37023 ft | 404 kts | 2° |
| 2026-05-04 12:24 | 50.28100 | 20.58785 | 37023 ft | 404 kts | 2° |
| 2026-05-04 12:24 | 50.33661 | 20.59361 | 37024 ft | 403 kts | 2° |
| 2026-05-04 12:25 | 50.39255 | 20.59942 | 37022 ft | 403 kts | 2° |
| 2026-05-04 12:25 | 50.44843 | 20.60524 | 37021 ft | 402 kts | 2° |
| 2026-05-04 12:26 | 50.50426 | 20.61105 | 37018 ft | 402 kts | 2° |
| 2026-05-04 12:26 | 50.56004 | 20.61687 | 37014 ft | 401 kts | 2° |
| 2026-05-04 12:27 | 50.58790 | 20.61976 | 36313 ft | 403 kts | 2° |
| 2026-05-04 12:27 | 50.61624 | 20.62272 | 35209 ft | 413 kts | 2° |
| 2026-05-04 12:27 | 50.64519 | 20.62575 | 34096 ft | 421 kts | 2° |
| 2026-05-04 12:27 | 50.67478 | 20.62882 | 32876 ft | 429 kts | 2° |
| 2026-05-04 12:28 | 50.70454 | 20.63194 | 32074 ft | 426 kts | 2° |
| 2026-05-04 12:28 | 50.73406 | 20.63504 | 31312 ft | 422 kts | 2° |
| 2026-05-04 12:28 | 50.76296 | 20.63809 | 30561 ft | 419 kts | 2° |
| 2026-05-04 12:28 | 50.79199 | 20.64113 | 29775 ft | 415 kts | 2° |
| 2026-05-04 12:29 | 50.82078 | 20.64420 | 28956 ft | 411 kts | 2° |
| 2026-05-04 12:29 | 50.84932 | 20.64725 | 28141 ft | 408 kts | 2° |
| 2026-05-04 12:29 | 50.87719 | 20.65021 | 27373 ft | 404 kts | 2° |
| 2026-05-04 12:29 | 50.90519 | 20.65316 | 26621 ft | 401 kts | 1° |
| 2026-05-04 12:30 | 50.93298 | 20.65610 | 25870 ft | 399 kts | 2° |
| 2026-05-04 12:30 | 50.96055 | 20.65904 | 25153 ft | 396 kts | 1° |
| 2026-05-04 12:30 | 50.98793 | 20.66194 | 24493 ft | 393 kts | 1° |
| 2026-05-04 12:30 | 51.01518 | 20.66482 | 23864 ft | 389 kts | 1° |
| 2026-05-04 12:31 | 51.04211 | 20.66769 | 23132 ft | 387 kts | 1° |
| 2026-05-04 12:31 | 51.06895 | 20.67056 | 22438 ft | 382 kts | 1° |
| 2026-05-04 12:31 | 51.09540 | 20.67339 | 21748 ft | 378 kts | 1° |
| 2026-05-04 12:31 | 51.12121 | 20.67615 | 21075 ft | 375 kts | 1° |
| 2026-05-04 12:32 | 51.14724 | 20.67891 | 20407 ft | 372 kts | 1° |
| 2026-05-04 12:32 | 51.19845 | 20.68439 | 19148 ft | 365 kts | 1° |
| 2026-05-04 12:32 | 51.22354 | 20.68710 | 18542 ft | 363 kts | 1° |
| 2026-05-04 12:33 | 51.24854 | 20.68982 | 17911 ft | 359 kts | 1° |
| 2026-05-04 12:33 | 51.27329 | 20.69255 | 17330 ft | 354 kts | 1° |
| 2026-05-04 12:33 | 51.29739 | 20.70004 | 16809 ft | 351 kts | 14° |
| 2026-05-04 12:33 | 51.32038 | 20.71223 | 16357 ft | 344 kts | 16° |
| 2026-05-04 12:34 | 51.34284 | 20.72453 | 15932 ft | 337 kts | 16° |
| 2026-05-04 12:34 | 51.36482 | 20.73648 | 15536 ft | 330 kts | 15° |
| 2026-05-04 12:34 | 51.38651 | 20.74823 | 15156 ft | 329 kts | 15° |
| 2026-05-04 12:34 | 51.40829 | 20.75998 | 14759 ft | 332 kts | 15° |
| 2026-05-04 12:35 | 51.43029 | 20.77182 | 14344 ft | 334 kts | 15° |
| 2026-05-04 12:35 | 51.45234 | 20.78369 | 13931 ft | 336 kts | 15° |
| 2026-05-04 12:35 | 51.47426 | 20.79549 | 13491 ft | 337 kts | 15° |
| 2026-05-04 12:35 | 51.49651 | 20.80747 | 13042 ft | 334 kts | 15° |
| 2026-05-04 12:36 | 51.51827 | 20.81920 | 12610 ft | 326 kts | 15° |
| 2026-05-04 12:36 | 51.53957 | 20.83068 | 12196 ft | 319 kts | 15° |
| 2026-05-04 12:36 | 51.56046 | 20.84198 | 11773 ft | 313 kts | 15° |
| 2026-05-04 12:36 | 51.58082 | 20.85296 | 11361 ft | 312 kts | 15° |
| 2026-05-04 12:37 | 51.60152 | 20.86411 | 10933 ft | 314 kts | 15° |
| 2026-05-04 12:37 | 51.62234 | 20.87536 | 10527 ft | 316 kts | 15° |
| 2026-05-04 12:37 | 51.64330 | 20.88672 | 10131 ft | 317 kts | 15° |
| 2026-05-04 12:37 | 51.66427 | 20.89807 | 9756 ft | 314 kts | 15° |
| 2026-05-04 12:38 | 51.68432 | 20.90897 | 9480 ft | 303 kts | 15° |
| 2026-05-04 12:38 | 51.70425 | 20.91957 | 9023 ft | 299 kts | 15° |
| 2026-05-04 12:38 | 51.72399 | 20.92983 | 8552 ft | 298 kts | 14° |
| 2026-05-04 12:38 | 51.74360 | 20.94004 | 8092 ft | 295 kts | 15° |
| 2026-05-04 12:39 | 51.76324 | 20.95034 | 7705 ft | 295 kts | 15° |
| 2026-05-04 12:39 | 51.78202 | 20.96301 | 7324 ft | 292 kts | 29° |
| 2026-05-04 12:39 | 51.79857 | 20.98191 | 6902 ft | 291 kts | 34° |
| 2026-05-04 12:39 | 51.81486 | 21.00150 | 6427 ft | 293 kts | 34° |
| 2026-05-04 12:40 | 51.83120 | 21.02108 | 6037 ft | 290 kts | 34° |
| 2026-05-04 12:40 | 51.84701 | 21.03989 | 5800 ft | 281 kts | 34° |
| 2026-05-04 12:40 | 51.86251 | 21.05834 | 5656 ft | 271 kts | 34° |
| 2026-05-04 12:40 | 51.87568 | 21.07935 | 5474 ft | 263 kts | 56° |
| 2026-05-04 12:41 | 51.88440 | 21.10480 | 5222 ft | 257 kts | 62° |
| 2026-05-04 12:41 | 51.89268 | 21.13077 | 4791 ft | 259 kts | 63° |
| 2026-05-04 12:41 | 51.90179 | 21.15566 | 4435 ft | 256 kts | 49° |
| 2026-05-04 12:41 | 51.91602 | 21.17139 | 4111 ft | 247 kts | 14° |
| 2026-05-04 12:42 | 51.93264 | 21.17203 | 3736 ft | 239 kts | 340° |
| 2026-05-04 12:42 | 51.94732 | 21.16045 | 3435 ft | 234 kts | 326° |
| 2026-05-04 12:42 | 51.96119 | 21.14708 | 3132 ft | 235 kts | 326° |
| 2026-05-04 12:42 | 51.97510 | 21.13407 | 2977 ft | 224 kts | 327° |
| 2026-05-04 12:43 | 51.98821 | 21.12191 | 2955 ft | 209 kts | 327° |
| 2026-05-04 12:43 | 52.00026 | 21.11131 | 3026 ft | 189 kts | 327° |
| 2026-05-04 12:43 | 52.01163 | 21.10139 | 2945 ft | 180 kts | 327° |
| 2026-05-04 12:43 | 52.02210 | 21.09231 | 2943 ft | 161 kts | 326° |
| 2026-05-04 12:44 | 52.03156 | 21.08410 | 2912 ft | 145 kts | 326° |
| 2026-05-04 12:44 | 52.03994 | 21.07680 | 2831 ft | 132 kts | 325° |
| 2026-05-04 12:44 | 52.04793 | 21.06983 | 2706 ft | 130 kts | 325° |
| 2026-05-04 12:44 | 52.05598 | 21.06280 | 2594 ft | 132 kts | 325° |
| 2026-05-04 12:45 | 52.06424 | 21.05562 | 2422 ft | 134 kts | 325° |
| 2026-05-04 12:45 | 52.07255 | 21.04840 | 2169 ft | 136 kts | 325° |
| 2026-05-04 12:45 | 52.08077 | 21.04123 | 1999 ft | 134 kts | 326° |
| 2026-05-04 12:45 | 52.08904 | 21.03402 | 1887 ft | 136 kts | 327° |
| 2026-05-04 12:46 | 52.09727 | 21.02685 | 1722 ft | 135 kts | 327° |
| 2026-05-04 12:46 | 52.10549 | 21.01969 | 1514 ft | 135 kts | 327° |
| 2026-05-04 12:46 | 52.11369 | 21.01254 | 1331 ft | 135 kts | 327° |
| 2026-05-04 12:46 | 52.12208 | 21.00523 | 1126 ft | 136 kts | 327° |
| 2026-05-04 12:47 | 52.13050 | 20.99787 | 950 ft | 137 kts | 328° |
| 2026-05-04 12:47 | 52.13878 | 20.99064 | 752 ft | 134 kts | 329° |
| 2026-05-04 12:47 | 52.14681 | 20.98357 | 570 ft | 133 kts | 329° |
| 2026-05-04 12:47 | 52.15507 | 20.97672 | 400 ft | 129 kts | 328° |
| 2026-05-04 12:48 | 52.16293 | 20.96992 | 352 ft | 127 kts | 318° |
| 2026-05-04 12:48 | 52.16911 | 20.96409 | 347 ft | 61 kts | 334° |
| 2026-05-04 12:48 | 52.17088 | 20.96274 | 347 ft | 17 kts | 337° |
| 2026-05-04 12:48 | 52.17220 | 20.96258 | 351 ft | 22 kts | 2° |
| 2026-05-04 12:49 | 52.17381 | 20.96280 | 344 ft | 27 kts | 37° |
| 2026-05-04 12:49 | 52.17452 | 20.96445 | 344 ft | 35 kts | 76° |
| 2026-05-04 12:49 | 52.17491 | 20.96570 | 344 ft | 3 kts | 40° |
| 2026-05-04 12:49 | 52.17521 | 20.96614 | 346 ft | 8 kts | 47° |
| 2026-05-04 12:50 | 52.17515 | 20.96678 | 349 ft | 4 kts | 133° |
| 2026-05-04 12:50 | 52.17480 | 20.96731 | 349 ft | 2 kts | 137° |
| 2026-05-04 12:50 | 52.17465 | 20.96754 | 352 ft | 0 kts | 137° |